Time;durP1;ratioP1;P1;durP2;ratioP2;P2;SDS_P1;SDS_P2;PMS_P1;PMS_P2;Temp;Humidity;BMP_temperature;BMP_pressure;BME280_temperature;BME280_humidity;BME280_pressure;Samples;Min_cycle;Max_cycle;Signal;HPM_P1;HPM_P2
2021/11/10 00:01:37;;;;;;;24.23;11.97;;;3.80;92.80;;;;;;5091256;28;21094;-75
2021/11/10 00:04:03;;;;;;;21.90;12.33;;;3.80;93.00;;;;;;5092521;28;20930;-76
2021/11/10 00:06:29;;;;;;;21.67;11.50;;;3.80;93.10;;;;;;5092256;28;20448;-76
2021/11/10 00:08:55;;;;;;;18.87;11.60;;;3.80;93.20;;;;;;5093404;28;20417;-76
2021/11/10 00:11:21;;;;;;;20.23;11.73;;;3.80;93.00;;;;;;5092814;28;20993;-76
2021/11/10 00:13:46;;;;;;;17.20;10.87;;;3.80;92.90;;;;;;5093733;28;20538;-77
2021/11/10 00:16:12;;;;;;;16.67;9.50;;;3.70;93.00;;;;;;5093210;28;20972;-77
2021/11/10 00:18:38;;;;;;;25.87;12.20;;;3.80;93.00;;;;;;5092140;28;20299;-76
2021/11/10 00:21:04;;;;;;;21.80;11.67;;;3.80;93.00;;;;;;5093048;28;20207;-75
2021/11/10 00:23:30;;;;;;;23.60;11.20;;;3.80;93.00;;;;;;5092387;28;20801;-76
2021/11/10 00:25:56;;;;;;;23.13;11.30;;;3.80;93.10;;;;;;5092791;28;20207;-76
2021/11/10 00:28:22;;;;;;;20.80;10.80;;;3.70;93.20;;;;;;5093873;28;20259;-76
2021/11/10 00:30:47;;;;;;;17.93;10.80;;;3.70;93.50;;;;;;5094358;28;20455;-76
2021/11/10 00:33:13;;;;;;;21.30;8.73;;;3.70;93.60;;;;;;5094850;28;20183;-76
2021/11/10 00:35:39;;;;;;;23.20;9.87;;;3.70;93.80;;;;;;5094865;28;20299;-75
2021/11/10 00:38:05;;;;;;;24.70;10.40;;;3.80;93.80;;;;;;5107756;28;20413;-76
2021/11/10 00:40:31;;;;;;;18.70;9.03;;;3.80;93.80;;;;;;5103315;28;20460;-76
2021/11/10 00:42:57;;;;;;;16.10;9.00;;;3.70;93.80;;;;;;5092720;28;20213;-75
2021/11/10 00:45:22;;;;;;;20.70;10.43;;;3.70;93.80;;;;;;5091769;28;20571;-77
2021/11/10 00:47:48;;;;;;;22.83;11.27;;;3.70;93.80;;;;;;5095019;28;20647;-74
2021/11/10 00:50:14;;;;;;;20.43;10.67;;;3.60;93.90;;;;;;5094040;28;20722;-75
2021/11/10 00:52:40;;;;;;;24.33;12.47;;;3.60;93.90;;;;;;5092075;28;20187;-75
2021/11/10 00:55:06;;;;;;;18.87;10.27;;;3.60;94.20;;;;;;5091546;28;20432;-76
2021/11/10 00:57:32;;;;;;;18.47;9.57;;;3.60;94.30;;;;;;5091693;28;20588;-76
2021/11/10 00:59:58;;;;;;;19.30;9.55;;;3.60;94.10;;;;;;5092900;28;20421;-75
2021/11/10 01:02:24;;;;;;;21.10;10.00;;;3.60;94.10;;;;;;5092880;28;20417;-76
2021/11/10 01:04:49;;;;;;;19.60;9.27;;;3.60;94.10;;;;;;5092679;28;20663;-77
2021/11/10 01:07:17;;;;;;;19.70;9.80;;;3.60;94.10;;;;;;5092232;28;20450;-77
2021/11/10 01:09:44;;;;;;;20.30;10.40;;;3.60;94.10;;;;;;5093917;28;20171;-76
2021/11/10 01:12:12;;;;;;;18.83;10.70;;;3.50;94.10;;;;;;5092359;28;20421;-76
2021/11/10 01:14:40;;;;;;;22.90;10.43;;;3.50;94.20;;;;;;5091238;28;20512;-76
2021/11/10 01:17:06;;;;;;;19.70;10.70;;;3.60;94.20;;;;;;5091652;28;20437;-76
2021/11/10 01:19:32;;;;;;;23.40;10.37;;;3.50;94.20;;;;;;5092495;28;20417;-76
2021/11/10 01:21:58;;;;;;;18.40;10.30;;;3.50;94.20;;;;;;5092309;28;20556;-74
2021/11/10 01:24:24;;;;;;;19.90;10.50;;;3.50;94.40;;;;;;5091699;28;21055;-76
2021/11/10 01:26:50;;;;;;;23.27;10.83;;;3.40;94.50;;;;;;5092126;28;20524;-77
2021/11/10 01:29:15;;;;;;;14.17;9.93;;;3.40;94.70;;;;;;5092772;28;20205;-76
2021/11/10 01:31:41;;;;;;;26.57;11.90;;;3.40;94.70;;;;;;5092222;28;20186;-75
2021/11/10 01:34:09;;;;;;;17.00;10.90;;;3.50;94.60;;;;;;5091463;28;20190;-76
2021/11/10 01:36:37;;;;;;;20.73;10.63;;;3.30;94.60;;;;;;5091777;28;20207;-76
2021/11/10 01:39:07;;;;;;;22.63;11.63;;;3.30;94.80;;;;;;5091605;28;20179;-76
2021/11/10 01:41:45;;;;;;;23.23;11.25;;;3.30;94.90;;;;;;5084459;28;20954;-75
2021/11/10 01:44:20;;;;;;;22.00;11.70;;;3.30;95.00;;;;;;5091790;28;20680;-76
2021/11/10 01:46:46;;;;;;;21.73;11.40;;;3.30;95.00;;;;;;5091413;28;20496;-75
2021/11/10 01:49:12;;;;;;;23.57;13.10;;;3.30;95.00;;;;;;5092389;28;20476;-75
2021/11/10 01:51:45;;;;;;;23.30;11.73;;;3.20;95.00;;;;;;5086631;28;20426;-77
2021/11/10 01:54:12;;;;;;;21.33;11.87;;;3.20;95.10;;;;;;5093234;28;20990;-76
2021/11/10 01:56:40;;;;;;;22.53;12.27;;;3.20;95.10;;;;;;5094989;28;20943;-76
2021/11/10 01:59:06;;;;;;;25.93;11.43;;;3.20;95.10;;;;;;5093078;28;21088;-75
2021/11/10 02:01:41;;;;;;;22.83;12.60;;;3.20;95.10;;;;;;5093720;28;20880;-76
2021/11/10 02:04:07;;;;;;;28.97;13.30;;;3.10;95.10;;;;;;5092080;28;20424;-76
2021/11/10 02:06:33;;;;;;;21.83;11.00;;;3.10;95.20;;;;;;5094278;28;20447;-77
2021/11/10 02:08:58;;;;;;;19.90;12.00;;;3.10;95.30;;;;;;5089660;28;20187;-76
2021/11/10 02:11:25;;;;;;;27.60;12.33;;;3.10;95.30;;;;;;5091069;28;20512;-76
2021/11/10 02:13:51;;;;;;;22.23;11.80;;;3.10;95.30;;;;;;5089018;28;20189;-75
2021/11/10 02:16:17;;;;;;;32.83;13.93;;;3.10;95.30;;;;;;5089898;28;20934;-75
2021/11/10 02:18:42;;;;;;;21.67;12.40;;;3.10;95.30;;;;;;5090643;28;20420;-77
2021/11/10 02:21:10;;;;;;;26.27;13.63;;;3.10;95.30;;;;;;5089675;28;20206;-75
2021/11/10 02:23:36;;;;;;;27.50;13.30;;;3.10;95.30;;;;;;5092549;28;20183;-77
2021/11/10 02:26:05;;;;;;;29.00;14.20;;;3.00;95.50;;;;;;5089559;28;20980;-75
2021/11/10 02:28:31;;;;;;;27.27;13.60;;;3.00;95.60;;;;;;5081590;28;20210;-76
2021/11/10 02:30:56;;;;;;;29.20;13.57;;;3.00;95.60;;;;;;5088084;28;20486;-76
2021/11/10 02:33:29;;;;;;;25.97;12.00;;;3.00;95.70;;;;;;5090054;28;20666;-75
2021/11/10 02:36:05;;;;;;;22.87;12.17;;;3.00;95.80;;;;;;5092875;28;20297;-76
2021/11/10 02:38:32;;;;;;;29.85;14.50;;;3.00;95.80;;;;;;5082972;28;20421;-75
2021/11/10 02:41:00;;;;;;;24.23;13.70;;;2.90;95.90;;;;;;5094866;28;20253;-76
2021/11/10 02:43:27;;;;;;;23.03;12.33;;;2.80;95.90;;;;;;5095060;28;20274;-77
2021/11/10 02:45:54;;;;;;;25.67;12.93;;;2.80;96.00;;;;;;5093540;28;20886;-75
2021/11/10 02:48:20;;;;;;;32.10;13.70;;;2.80;96.00;;;;;;5103692;28;20497;-75
2021/11/10 02:50:47;;;;;;;26.90;11.80;;;2.70;95.70;;;;;;5098975;28;20246;-76
2021/11/10 02:53:13;;;;;;;24.58;12.75;;;2.70;95.60;;;;;;5091557;28;20421;-75
2021/11/10 02:55:39;;;;;;;27.10;12.13;;;2.70;95.60;;;;;;5093602;28;20202;-75
2021/11/10 02:58:05;;;;;;;23.30;11.33;;;2.60;95.60;;;;;;5095738;28;20182;-76
2021/11/10 03:00:32;;;;;;;29.27;13.10;;;2.60;95.60;;;;;;5093021;28;20829;-76
2021/11/10 03:02:59;;;;;;;24.73;12.77;;;2.70;95.80;;;;;;5093274;28;20861;-75
2021/11/10 03:05:26;;;;;;;31.73;14.13;;;2.70;95.80;;;;;;5092353;28;20566;-75
2021/11/10 03:07:52;;;;;;;23.00;12.40;;;2.70;95.90;;;;;;5091883;28;20434;-75
2021/11/10 03:10:18;;;;;;;23.20;11.47;;;2.70;96.00;;;;;;5093193;28;20194;-76
2021/11/10 03:12:44;;;;;;;22.20;12.23;;;2.70;96.10;;;;;;5093261;28;21329;-77
2021/11/10 03:15:10;;;;;;;30.75;14.85;;;2.70;96.10;;;;;;5092304;28;20474;-75
2021/11/10 03:17:37;;;;;;;38.57;14.20;;;2.70;96.10;;;;;;5091707;28;20214;-76
2021/11/10 03:20:07;;;;;;;26.27;12.80;;;2.70;96.10;;;;;;5092670;28;20421;-75
2021/11/10 03:22:33;;;;;;;28.27;14.60;;;2.70;95.90;;;;;;5093038;28;20784;-76
2021/11/10 03:25:00;;;;;;;32.50;14.00;;;2.80;95.90;;;;;;5092109;28;20191;-75
2021/11/10 03:27:26;;;;;;;30.03;14.33;;;2.70;95.90;;;;;;5091484;28;20452;-76
2021/11/10 03:29:53;;;;;;;24.20;12.10;;;2.80;96.00;;;;;;5095655;28;20433;-77
2021/11/10 03:32:21;;;;;;;27.27;13.97;;;2.80;96.00;;;;;;5092705;28;20484;-74
2021/11/10 03:34:48;;;;;;;29.93;14.30;;;2.80;96.00;;;;;;5091918;28;20424;-75
2021/11/10 03:37:15;;;;;;;34.60;16.75;;;2.80;96.10;;;;;;5091772;28;20483;-76
2021/11/10 03:39:40;;;;;;;27.63;14.40;;;2.90;96.20;;;;;;5084870;28;20203;-75
2021/11/10 03:42:07;;;;;;;32.40;13.83;;;2.80;96.20;;;;;;5091482;28;20211;-77
2021/11/10 03:44:33;;;;;;;29.50;12.87;;;2.80;96.20;;;;;;5081662;28;20311;-75
2021/11/10 03:46:59;;;;;;;30.10;15.37;;;2.80;96.10;;;;;;5092758;28;20467;-76
2021/11/10 03:49:25;;;;;;;30.77;15.60;;;2.70;95.90;;;;;;5093602;28;20876;-75
2021/11/10 03:51:52;;;;;;;30.90;14.77;;;2.70;95.80;;;;;;5087910;28;20246;-75
2021/11/10 03:54:19;;;;;;;32.53;13.50;;;2.70;95.70;;;;;;5089041;28;20529;-75
2021/11/10 03:56:45;;;;;;;25.37;13.93;;;2.70;95.70;;;;;;5091114;28;20441;-75
2021/11/10 03:59:12;;;;;;;34.15;15.25;;;2.80;95.70;;;;;;5091028;28;20429;-77
2021/11/10 04:01:38;;;;;;;29.23;15.00;;;2.80;95.60;;;;;;5091144;28;20226;-77
2021/11/10 04:04:05;;;;;;;31.02;16.13;;;2.80;95.40;;;;;;5090678;28;20179;-77
2021/11/10 04:06:31;;;;;;;34.58;16.23;;;2.70;95.20;;;;;;5091408;28;20737;-76
2021/11/10 04:08:58;;;;;;;29.50;14.77;;;2.70;95.30;;;;;;5086144;28;20210;-77
2021/11/10 04:11:24;;;;;;;30.20;14.33;;;2.80;95.50;;;;;;5090997;28;20424;-75
2021/11/10 04:13:51;;;;;;;30.00;14.33;;;2.80;95.40;;;;;;5093003;28;20790;-76
2021/11/10 04:16:20;;;;;;;27.77;14.60;;;2.80;95.30;;;;;;5091125;28;20199;-76
2021/11/10 04:18:51;;;;;;;31.15;15.30;;;2.80;95.30;;;;;;5091644;28;20645;-76
2021/11/10 04:21:18;;;;;;;26.50;15.30;;;2.80;95.30;;;;;;5091544;28;20222;-75
2021/11/10 04:23:45;;;;;;;36.92;15.82;;;2.80;95.40;;;;;;5091761;28;20202;-75
2021/11/10 04:26:11;;;;;;;29.30;15.45;;;2.70;95.30;;;;;;5091892;28;20191;-75
2021/11/10 04:28:37;;;;;;;25.15;14.15;;;2.80;95.40;;;;;;5091835;28;20190;-76
2021/11/10 04:31:03;;;;;;;35.17;16.33;;;2.80;95.40;;;;;;5090881;28;20183;-76
2021/11/10 04:33:29;;;;;;;34.60;16.47;;;2.70;95.30;;;;;;5091293;28;20233;-76
2021/11/10 04:35:54;;;;;;;33.03;15.23;;;2.70;95.20;;;;;;5091110;28;20724;-76
2021/11/10 04:38:20;;;;;;;35.00;14.80;;;2.60;95.30;;;;;;5091926;28;20183;-77
2021/11/10 04:40:47;;;;;;;31.30;15.00;;;2.70;95.50;;;;;;5090107;28;20465;-77
2021/11/10 04:43:13;;;;;;;33.47;14.80;;;2.70;95.40;;;;;;5089496;28;20425;-76
2021/11/10 04:45:39;;;;;;;33.00;14.73;;;2.70;95.50;;;;;;5089511;28;21316;-76
2021/11/10 04:48:06;;;;;;;38.23;15.23;;;2.70;95.50;;;;;;5094581;28;20417;-76
2021/11/10 04:50:33;;;;;;;33.67;16.05;;;2.80;95.50;;;;;;5091245;28;20504;-76
2021/11/10 04:52:59;;;;;;;31.92;16.90;;;2.80;95.40;;;;;;5092429;28;20185;-76
2021/11/10 04:55:26;;;;;;;27.40;15.07;;;2.70;95.20;;;;;;5094707;28;20191;-76
2021/11/10 04:57:51;;;;;;;31.40;15.02;;;2.60;95.20;;;;;;5089849;28;20202;-76
2021/11/10 05:00:17;;;;;;;30.50;16.00;;;2.70;95.30;;;;;;5091130;28;20184;-77
2021/11/10 05:02:43;;;;;;;38.73;17.03;;;2.60;95.10;;;;;;5092236;28;20262;-76
2021/11/10 05:05:09;;;;;;;31.27;14.33;;;2.60;95.20;;;;;;5089874;28;20976;-77
2021/11/10 05:07:35;;;;;;;31.30;15.00;;;2.60;95.20;;;;;;5090948;28;20939;-76
2021/11/10 05:10:01;;;;;;;32.90;16.83;;;2.60;95.30;;;;;;5091207;28;20428;-77
2021/11/10 05:12:28;;;;;;;33.42;15.30;;;2.60;95.30;;;;;;5090767;28;20179;-77
2021/11/10 05:14:55;;;;;;;27.58;14.15;;;2.70;95.30;;;;;;5091028;28;20266;-78
2021/11/10 05:17:24;;;;;;;32.53;15.10;;;2.70;95.20;;;;;;5092579;28;20921;-76
2021/11/10 05:19:50;;;;;;;32.60;15.40;;;2.70;95.10;;;;;;5091170;28;20270;-75
2021/11/10 05:22:17;;;;;;;24.25;13.63;;;2.70;95.20;;;;;;5095511;28;20210;-77
2021/11/10 05:24:43;;;;;;;28.67;15.77;;;2.70;95.20;;;;;;5093832;28;20187;-75
2021/11/10 05:27:09;;;;;;;40.83;15.87;;;2.70;95.30;;;;;;5092495;28;20207;-75
2021/11/10 05:29:35;;;;;;;30.50;15.20;;;2.70;95.30;;;;;;5089522;28;20303;-77
2021/11/10 05:32:00;;;;;;;34.47;15.13;;;2.70;95.30;;;;;;5090983;28;20924;-76
2021/11/10 05:34:26;;;;;;;33.63;16.13;;;2.60;95.50;;;;;;5089034;28;20697;-77
2021/11/10 05:36:52;;;;;;;34.40;14.90;;;2.60;95.60;;;;;;5087863;28;20236;-76
2021/11/10 05:39:19;;;;;;;31.87;14.87;;;2.60;95.80;;;;;;5087669;28;20425;-77
2021/11/10 05:41:46;;;;;;;32.10;15.65;;;2.70;95.80;;;;;;5089673;28;20891;-76
2021/11/10 05:44:13;;;;;;;29.92;14.95;;;2.70;95.70;;;;;;5088890;28;20547;-76
2021/11/10 05:46:40;;;;;;;32.67;15.37;;;2.70;95.70;;;;;;5089029;28;20632;-76
2021/11/10 05:49:06;;;;;;;31.98;15.60;;;2.60;95.50;;;;;;5088724;28;21138;-76
2021/11/10 05:51:31;;;;;;;34.20;15.30;;;2.50;95.60;;;;;;5082737;28;20187;-76
2021/11/10 05:53:57;;;;;;;31.10;14.90;;;2.60;95.80;;;;;;5088679;28;20417;-76
2021/11/10 05:56:26;;;;;;;34.03;14.90;;;2.60;95.70;;;;;;5089414;28;20506;-77
2021/11/10 05:58:57;;;;;;;27.60;14.00;;;2.60;95.60;;;;;;5089367;28;20433;-76
2021/11/10 06:01:23;;;;;;;31.08;15.30;;;2.60;95.60;;;;;;5089222;28;20658;-77
2021/11/10 06:03:49;;;;;;;28.23;14.83;;;2.60;95.50;;;;;;5088476;28;20557;-76
2021/11/10 06:06:15;;;;;;;38.77;17.17;;;2.60;95.50;;;;;;5088706;28;20445;-76
2021/11/10 06:08:40;;;;;;;33.13;15.30;;;2.50;95.50;;;;;;5088965;28;20654;-77
2021/11/10 06:11:08;;;;;;;29.00;15.17;;;2.50;95.60;;;;;;5088452;28;20191;-76
2021/11/10 06:13:35;;;;;;;27.30;13.80;;;2.60;95.60;;;;;;5086811;28;20223;-75
2021/11/10 06:16:01;;;;;;;37.67;15.30;;;2.70;95.70;;;;;;5090197;28;20521;-77
2021/11/10 06:18:29;;;;;;;28.70;13.97;;;2.70;95.60;;;;;;5088781;28;20513;-77
2021/11/10 06:20:56;;;;;;;28.63;13.73;;;2.80;95.80;;;;;;5088642;28;20465;-76
2021/11/10 06:23:21;;;;;;;34.67;15.30;;;2.80;95.90;;;;;;5088448;28;20670;-76
2021/11/10 06:25:48;;;;;;;33.63;15.57;;;2.90;96.00;;;;;;5086616;28;20490;-78
2021/11/10 06:28:14;;;;;;;28.20;14.65;;;2.90;95.90;;;;;;5088916;28;20429;-76
2021/11/10 06:30:39;;;;;;;42.37;16.40;;;2.90;95.90;;;;;;5088589;28;20190;-75
2021/11/10 06:33:05;;;;;;;31.27;15.33;;;2.90;95.70;;;;;;5087998;28;20424;-75
2021/11/10 06:35:31;;;;;;;33.00;15.23;;;2.90;95.50;;;;;;5087998;28;20460;-76
2021/11/10 06:37:57;;;;;;;37.90;18.00;;;2.90;95.30;;;;;;5088308;28;20198;-77
2021/11/10 06:40:22;;;;;;;33.93;14.60;;;3.00;95.20;;;;;;5086911;28;20203;-76
2021/11/10 06:42:50;;;;;;;36.85;16.58;;;3.00;95.20;;;;;;5088966;28;20609;-76
2021/11/10 06:45:16;;;;;;;33.03;15.05;;;3.00;95.30;;;;;;5087658;28;20191;-78
2021/11/10 06:47:42;;;;;;;36.90;18.13;;;3.10;95.30;;;;;;5088227;28;20186;-76
2021/11/10 06:50:09;;;;;;;34.93;14.87;;;3.10;95.40;;;;;;5087893;28;20448;-76
2021/11/10 06:52:34;;;;;;;36.72;15.35;;;3.10;95.50;;;;;;5085930;28;20950;-77
2021/11/10 06:55:00;;;;;;;30.53;15.43;;;3.20;95.50;;;;;;5087715;28;20182;-77
2021/11/10 06:57:26;;;;;;;26.50;13.93;;;3.20;95.50;;;;;;5087673;28;20241;-77
2021/11/10 06:59:52;;;;;;;41.27;18.20;;;3.20;95.40;;;;;;5088258;28;20187;-78
2021/11/10 07:02:18;;;;;;;32.23;16.37;;;3.20;95.30;;;;;;5086718;28;20318;-77
2021/11/10 07:04:44;;;;;;;48.13;18.27;;;3.10;95.20;;;;;;5086758;28;20421;-78
2021/11/10 07:07:09;;;;;;;32.10;15.93;;;3.00;95.10;;;;;;5088063;28;20874;-76
2021/11/10 07:09:35;;;;;;;29.33;15.50;;;3.00;95.00;;;;;;5088746;28;20502;-77
2021/11/10 07:12:02;;;;;;;34.90;15.37;;;3.00;95.10;;;;;;5090013;28;20191;-77
2021/11/10 07:14:27;;;;;;;33.30;15.60;;;3.10;95.10;;;;;;5089635;28;20459;-77
2021/11/10 07:16:54;;;;;;;33.53;15.47;;;3.20;95.00;;;;;;5101406;28;20453;-77
2021/11/10 07:19:20;;;;;;;37.53;16.53;;;3.20;94.80;;;;;;5104962;28;20526;-77
2021/11/10 07:21:47;;;;;;;37.73;16.60;;;3.10;94.60;;;;;;5090629;28;20465;-77
2021/11/10 07:24:13;;;;;;;35.97;17.63;;;3.10;94.60;;;;;;5087929;28;20947;-75
2021/11/10 07:26:38;;;;;;;33.00;15.93;;;3.20;94.40;;;;;;5087835;28;20199;-77
2021/11/10 07:29:04;;;;;;;38.17;16.63;;;3.10;94.40;;;;;;5089876;28;20413;-76
2021/11/10 07:31:30;;;;;;;34.27;15.23;;;3.10;94.30;;;;;;5089964;28;20850;-77
2021/11/10 07:33:59;;;;;;;38.20;17.30;;;3.20;94.20;;;;;;5089500;28;20181;-76
2021/11/10 07:36:28;;;;;;;34.17;16.37;;;3.30;94.10;;;;;;5086359;28;20445;-76
2021/11/10 07:38:56;;;;;;;37.77;17.70;;;3.30;93.90;;;;;;5088551;28;20475;-76
2021/11/10 07:41:25;;;;;;;32.60;15.80;;;3.30;93.60;;;;;;5087793;28;20477;-78
2021/11/10 07:43:52;;;;;;;40.27;17.00;;;3.20;93.60;;;;;;5088669;28;20199;-76
2021/11/10 07:46:19;;;;;;;36.10;17.13;;;3.30;93.70;;;;;;5091178;28;20532;-77
2021/11/10 07:48:49;;;;;;;33.27;15.43;;;3.40;93.70;;;;;;5090787;28;20486;-76
2021/11/10 07:51:16;;;;;;;39.03;16.60;;;3.60;93.30;;;;;;5092138;28;21483;-78
2021/11/10 07:53:42;;;;;;;29.73;14.77;;;3.50;92.90;;;;;;5091574;28;20464;-77
2021/11/10 07:56:08;;;;;;;34.70;16.80;;;3.50;92.80;;;;;;5091629;28;20484;-76
2021/11/10 07:58:35;;;;;;;30.77;15.77;;;3.50;92.80;;;;;;5091942;28;20663;-77
2021/11/10 08:01:02;;;;;;;42.87;15.70;;;3.60;92.80;;;;;;5091031;28;20580;-75
2021/11/10 08:03:28;;;;;;;37.30;16.83;;;3.70;92.60;;;;;;5089377;28;20420;-75
2021/11/10 08:05:56;;;;;;;33.73;15.70;;;3.70;92.50;;;;;;5091243;28;20888;-77
2021/11/10 08:08:22;;;;;;;37.50;17.70;;;3.70;92.30;;;;;;5091579;28;20891;-77
2021/11/10 08:10:49;;;;;;;31.87;15.83;;;3.90;92.30;;;;;;5091251;28;20437;-76
2021/11/10 08:13:15;;;;;;;32.43;17.20;;;3.90;92.00;;;;;;5086525;28;20441;-78
2021/11/10 08:15:41;;;;;;;30.93;16.37;;;4.00;92.10;;;;;;5091278;28;20955;-78
2021/11/10 08:18:07;;;;;;;41.70;17.20;;;4.00;92.00;;;;;;5091887;28;20191;-78
2021/11/10 08:20:33;;;;;;;34.33;16.63;;;4.10;92.00;;;;;;5092173;28;20526;-76
2021/11/10 08:22:59;;;;;;;40.63;18.57;;;4.20;91.80;;;;;;5093135;28;20433;-77
2021/11/10 08:25:25;;;;;;;36.13;16.37;;;4.30;91.50;;;;;;5100496;28;20421;-75
2021/11/10 08:27:51;;;;;;;27.40;16.40;;;4.30;91.40;;;;;;5098974;28;20233;-77
2021/11/10 08:30:18;;;;;;;32.63;17.20;;;4.40;91.40;;;;;;5099664;28;20447;-78
2021/11/10 08:32:48;;;;;;;37.30;17.17;;;4.50;91.30;;;;;;5102305;28;20417;-77
2021/11/10 08:35:14;;;;;;;30.93;16.97;;;4.60;90.90;;;;;;5096279;28;20437;-76
2021/11/10 08:37:41;;;;;;;37.13;17.77;;;4.60;90.70;;;;;;5096062;28;20489;-77
2021/11/10 08:40:10;;;;;;;38.17;16.13;;;4.70;90.60;;;;;;5091950;28;20542;-76
2021/11/10 08:42:37;;;;;;;38.67;16.07;;;4.80;90.20;;;;;;5091651;28;20483;-77
2021/11/10 08:45:13;;;;;;;41.30;18.10;;;4.90;90.00;;;;;;5083991;28;20498;-77
2021/11/10 08:47:42;;;;;;;36.97;17.23;;;4.90;89.50;;;;;;5085390;28;20846;-76
2021/11/10 08:50:09;;;;;;;37.70;18.50;;;5.10;89.90;;;;;;5095364;28;20440;-78
2021/11/10 08:52:36;;;;;;;36.70;17.23;;;5.10;89.60;;;;;;5096546;28;21149;-77
2021/11/10 08:55:04;;;;;;;38.97;17.73;;;5.30;89.50;;;;;;5093516;28;20478;-76
2021/11/10 08:57:30;;;;;;;34.97;17.47;;;5.50;89.00;;;;;;5090399;28;20452;-76
2021/11/10 08:59:55;;;;;;;40.47;18.23;;;5.60;88.30;;;;;;5092812;28;20787;-76
2021/11/10 09:02:21;;;;;;;31.07;16.77;;;5.60;88.00;;;;;;5092015;28;20262;-77
2021/11/10 09:04:47;;;;;;;32.40;16.27;;;5.80;88.00;;;;;;5091695;28;20425;-76
2021/11/10 09:07:13;;;;;;;34.17;16.80;;;6.00;87.00;;;;;;5092407;28;20213;-76
2021/11/10 09:09:39;;;;;;;34.43;17.13;;;6.00;86.50;;;;;;5091969;28;20425;-77
2021/11/10 09:12:05;;;;;;;33.40;18.03;;;6.10;86.20;;;;;;5091250;28;20199;-76
2021/11/10 09:14:31;;;;;;;33.93;16.47;;;6.20;85.90;;;;;;5090794;28;20653;-77
2021/11/10 09:16:56;;;;;;;36.37;16.83;;;6.30;85.60;;;;;;5091217;28;20451;-77
2021/11/10 09:19:22;;;;;;;32.13;17.77;;;6.40;85.30;;;;;;5090324;28;20844;-75
2021/11/10 09:21:48;;;;;;;37.03;18.23;;;6.50;85.30;;;;;;5090830;28;20203;-75
2021/11/10 09:24:14;;;;;;;45.97;18.57;;;6.60;84.70;;;;;;5090012;28;20187;-75
2021/11/10 09:26:41;;;;;;;31.40;16.57;;;6.60;83.70;;;;;;5090341;28;20194;-77
2021/11/10 09:29:07;;;;;;;37.47;17.30;;;6.60;83.80;;;;;;5088989;28;20436;-77
2021/11/10 09:31:38;;;;;;;40.63;18.53;;;6.50;83.70;;;;;;5090632;28;21093;-75
2021/11/10 09:34:07;;;;;;;37.70;17.77;;;6.50;84.30;;;;;;5089435;28;20425;-76
2021/11/10 09:36:36;;;;;;;39.63;17.53;;;6.40;84.40;;;;;;5090352;28;20444;-77
2021/11/10 09:39:02;;;;;;;32.33;17.00;;;6.40;84.60;;;;;;5090503;28;20429;-76
2021/11/10 09:41:28;;;;;;;33.63;18.70;;;6.30;84.60;;;;;;5090034;28;20469;-76
2021/11/10 09:43:54;;;;;;;36.73;16.60;;;6.40;84.40;;;;;;5089517;28;20868;-77
2021/11/10 09:46:20;;;;;;;31.80;17.20;;;6.50;84.60;;;;;;5090148;28;20246;-77
2021/11/10 09:48:46;;;;;;;32.80;17.60;;;6.50;84.70;;;;;;5090557;28;20437;-77
2021/11/10 09:51:12;;;;;;;36.83;17.30;;;6.70;84.10;;;;;;5090183;28;20482;-77
2021/11/10 09:53:38;;;;;;;34.57;17.37;;;6.80;82.70;;;;;;5090242;28;20593;-77
2021/11/10 09:56:05;;;;;;;36.60;17.97;;;6.90;82.70;;;;;;5088010;28;20696;-77
2021/11/10 09:58:32;;;;;;;36.97;17.63;;;7.00;82.80;;;;;;5090013;28;20426;-76
2021/11/10 10:01:08;;;;;;;32.30;16.70;;;7.10;82.40;;;;;;5088599;28;20556;-77
2021/11/10 10:03:35;;;;;;;35.57;17.70;;;7.10;81.70;;;;;;5081712;28;20424;-76
2021/11/10 10:06:02;;;;;;;31.07;17.50;;;7.00;81.70;;;;;;5091526;28;20504;-76
2021/11/10 10:08:28;;;;;;;39.67;18.77;;;6.90;82.40;;;;;;5093397;28;20457;-76
2021/11/10 10:10:54;;;;;;;39.13;16.60;;;6.90;82.20;;;;;;5090241;28;20934;-76
2021/11/10 10:13:21;;;;;;;37.50;16.37;;;6.90;82.70;;;;;;5089138;28;20444;-79
2021/11/10 10:15:49;;;;;;;33.37;17.70;;;6.80;83.10;;;;;;5088553;28;20445;-76
2021/11/10 10:18:22;;;;;;;32.67;18.13;;;6.80;83.40;;;;;;5089965;28;20491;-76
2021/11/10 10:21:04;;;;;;;30.37;16.87;;;6.70;83.40;;;;;;5089151;28;20468;-77
2021/11/10 10:23:35;;;;;;;34.47;17.40;;;6.70;83.80;;;;;;5082835;28;20432;-78
2021/11/10 10:26:11;;;;;;;36.50;17.97;;;6.60;84.40;;;;;;5089943;28;20441;-77
2021/11/10 10:28:47;;;;;;;33.67;18.93;;;6.60;84.40;;;;;;5092041;28;20784;-76
2021/11/10 10:31:19;;;;;;;35.63;17.27;;;6.70;85.00;;;;;;5089861;28;20811;-76
2021/11/10 10:33:48;;;;;;;33.63;19.40;;;6.90;84.60;;;;;;5089101;28;20429;-77
2021/11/10 10:36:20;;;;;;;33.77;18.47;;;6.90;83.80;;;;;;5089481;28;20455;-75
2021/11/10 10:38:53;;;;;;;46.10;20.93;;;6.90;83.30;;;;;;5089116;28;20507;-76
2021/11/10 10:41:21;;;;;;;41.00;18.83;;;6.70;83.40;;;;;;5089920;28;20495;-79
2021/11/10 10:43:53;;;;;;;36.43;19.20;;;6.80;84.00;;;;;;5088508;28;20479;-78
2021/11/10 10:46:30;;;;;;;40.47;20.20;;;6.80;83.70;;;;;;5081837;28;20524;-75
2021/11/10 10:49:15;;;;;;;40.50;19.13;;;6.80;83.30;;;;;;5090373;28;20506;-78
2021/11/10 10:51:45;;;;;;;39.47;19.70;;;6.80;83.40;;;;;;5087851;28;20429;-77
2021/11/10 10:54:11;;;;;;;41.97;20.97;;;6.90;83.60;;;;;;5088079;28;20436;-75
2021/11/10 10:56:38;;;;;;;36.73;18.80;;;7.10;82.80;;;;;;5088206;28;20935;-77
2021/11/10 10:59:12;;;;;;;29.87;18.13;;;7.20;82.50;;;;;;5088546;28;20630;-76
2021/11/10 11:01:45;;;;;;;40.67;19.17;;;7.20;82.40;;;;;;5087935;28;20525;-77
2021/11/10 11:04:19;;;;;;;33.03;17.97;;;7.30;81.70;;;;;;5084494;28;20529;-78
2021/11/10 11:07:09;;;;;;;47.43;22.70;;;7.20;81.40;;;;;;5088399;28;20440;-77
2021/11/10 11:09:42;;;;;;;41.47;19.53;;;7.30;81.80;;;;;;5078583;28;20429;-77
2021/11/10 11:12:29;;;;;;;38.73;20.30;;;7.30;81.50;;;;;;5087880;28;20949;-76
2021/11/10 11:15:24;;;;;;;33.27;18.97;;;7.30;81.40;;;;;;5089035;28;20455;-77
2021/11/10 11:17:52;;;;;;;33.27;18.10;;;7.50;81.70;;;;;;5090660;28;20895;-77
2021/11/10 11:20:23;;;;;;;34.27;18.60;;;7.70;81.20;;;;;;5090929;28;20428;-77
2021/11/10 11:22:54;;;;;;;44.73;19.43;;;7.90;80.20;;;;;;5092418;28;20413;-77
2021/11/10 11:25:25;;;;;;;37.37;18.40;;;7.90;79.00;;;;;;5091240;28;20412;-75
2021/11/10 11:28:15;;;;;;;41.27;20.40;;;8.00;79.20;;;;;;5092478;28;20404;-75
2021/11/10 11:30:51;;;;;;;39.07;19.90;;;8.10;79.00;;;;;;5085723;28;20953;-77
2021/11/10 11:33:20;;;;;;;41.90;21.83;;;8.10;78.00;;;;;;5093566;28;20508;-76
2021/11/10 11:35:56;;;;;;;38.40;19.20;;;8.00;78.40;;;;;;5091385;28;20441;-77
2021/11/10 11:38:25;;;;;;;40.77;21.10;;;8.00;79.00;;;;;;5092631;28;20492;-75
2021/11/10 11:40:54;;;;;;;45.03;21.43;;;7.90;79.20;;;;;;5093645;28;21064;-77
2021/11/10 11:43:24;;;;;;;34.60;19.30;;;7.60;80.30;;;;;;5094032;28;20416;-77
2021/11/10 11:45:52;;;;;;;34.20;20.00;;;7.60;81.10;;;;;;5092872;28;20433;-75
2021/11/10 11:48:20;;;;;;;37.90;18.50;;;7.70;81.20;;;;;;5092699;28;20455;-77
2021/11/10 11:50:48;;;;;;;40.10;20.63;;;7.70;80.50;;;;;;5093506;28;20822;-76
2021/11/10 11:53:15;;;;;;;35.57;19.03;;;7.60;80.80;;;;;;5093148;28;20428;-78
2021/11/10 11:55:55;;;;;;;39.23;19.40;;;7.60;81.20;;;;;;5086472;28;20994;-77
2021/11/10 11:58:24;;;;;;;39.53;21.30;;;7.70;80.80;;;;;;5093656;28;20417;-77
2021/11/10 12:00:57;;;;;;;44.63;21.63;;;7.70;80.90;;;;;;5094546;28;20453;-76
2021/11/10 12:03:28;;;;;;;41.17;21.63;;;7.80;80.50;;;;;;5097469;28;20416;-74
2021/11/10 12:06:17;;;;;;;33.40;19.63;;;7.90;80.50;;;;;;5097820;28;20437;-76
2021/11/10 12:08:49;;;;;;;29.47;17.13;;;8.10;80.20;;;;;;5090251;28;20441;-75
2021/11/10 12:11:29;;;;;;;35.43;18.83;;;8.10;79.60;;;;;;5096064;28;20417;-75
2021/11/10 12:14:19;;;;;;;27.20;17.67;;;8.20;79.50;;;;;;5095619;28;20516;-77
2021/11/10 12:16:55;;;;;;;39.60;19.80;;;8.40;79.50;;;;;;5093259;28;20959;-76
2021/11/10 12:19:37;;;;;;;36.43;19.47;;;8.60;79.20;;;;;;5095363;28;20394;-77
2021/11/10 12:22:18;;;;;;;38.50;20.43;;;8.80;78.30;;;;;;5091649;28;20559;-77
2021/11/10 12:24:48;;;;;;;37.50;19.80;;;8.80;77.30;;;;;;5094741;28;20405;-74
2021/11/10 12:27:21;;;;;;;30.83;18.97;;;8.90;77.10;;;;;;5094417;28;20437;-75
2021/11/10 12:30:16;;;;;;;33.63;19.10;;;9.00;76.80;;;;;;5093737;28;20432;-76
2021/11/10 12:33:05;;;;;;;32.43;19.07;;;9.00;76.40;;;;;;5077851;28;20433;-76
2021/11/10 12:35:32;;;;;;;38.67;19.97;;;9.00;75.80;;;;;;5084863;28;20500;-76
2021/11/10 12:38:00;;;;;;;35.70;17.30;;;9.00;75.90;;;;;;5093479;28;20420;-76
2021/11/10 12:40:35;;;;;;;37.63;19.00;;;9.00;76.20;;;;;;5092770;28;20446;-75
2021/11/10 12:43:00;;;;;;;30.50;18.00;;;9.00;76.40;;;;;;5092917;28;20425;-76